sensor_id;sensor_type;location;lat;lon;timestamp;pressure;altitude;pressure_sealevel;temperature;humidity
39593;BME280;25286;48.870;9.084;2022-09-03T00:00:21;97588.88;;;17.98;nan
39593;BME280;25286;48.870;9.084;2022-09-03T00:03:03;97596.75;;;17.72;nan
39593;BME280;25286;48.870;9.084;2022-09-03T00:05:39;97596.75;;;17.91;nan
39593;BME280;25286;48.870;9.084;2022-09-03T00:11:06;97591.34;;;17.99;nan
39593;BME280;25286;48.870;9.084;2022-09-03T00:16:06;97576.81;;;17.89;nan
39593;BME280;25286;48.870;9.084;2022-09-03T00:18:34;97578.97;;;17.73;nan
39593;BME280;25286;48.870;9.084;2022-09-03T00:21:04;97578.41;;;17.76;nan
39593;BME280;25286;48.870;9.084;2022-09-03T00:23:38;97581.63;;;17.64;nan
39593;BME280;25286;48.870;9.084;2022-09-03T00:28:43;97587.84;;;17.75;nan
39593;BME280;25286;48.870;9.084;2022-09-03T00:31:40;97591.03;;;17.44;nan
39593;BME280;25286;48.870;9.084;2022-09-03T00:36:45;97597.25;;;17.36;nan
39593;BME280;25286;48.870;9.084;2022-09-03T00:39:18;97597.13;;;17.46;nan
39593;BME280;25286;48.870;9.084;2022-09-03T00:47:20;97591.63;;;17.22;nan
39593;BME280;25286;48.870;9.084;2022-09-03T01:02:00;97583.47;;;17.31;nan
39593;BME280;25286;48.870;9.084;2022-09-03T01:04:50;97583.84;;;17.43;nan
39593;BME280;25286;48.870;9.084;2022-09-03T01:07:40;97585.00;;;17.42;nan
39593;BME280;25286;48.870;9.084;2022-09-03T01:27:28;97585.88;;;17.57;nan
39593;BME280;25286;48.870;9.084;2022-09-03T01:30:03;97578.47;;;17.52;nan
39593;BME280;25286;48.870;9.084;2022-09-03T01:38:32;97576.41;;;17.20;nan
39593;BME280;25286;48.870;9.084;2022-09-03T01:46:51;97580.94;;;17.53;nan
39593;BME280;25286;48.870;9.084;2022-09-03T01:52:16;97588.94;;;17.36;nan
39593;BME280;25286;48.870;9.084;2022-09-03T02:02:31;97586.94;;;17.42;nan
39593;BME280;25286;48.870;9.084;2022-09-03T02:05:18;97589.16;;;17.21;nan
39593;BME280;25286;48.870;9.084;2022-09-03T02:07:48;97593.00;;;17.44;nan
39593;BME280;25286;48.870;9.084;2022-09-03T02:10:20;97588.88;;;17.41;nan
39593;BME280;25286;48.870;9.084;2022-09-03T02:13:15;97591.78;;;17.31;nan
39593;BME280;25286;48.870;9.084;2022-09-03T02:15:42;97596.66;;;17.39;nan
39593;BME280;25286;48.870;9.084;2022-09-03T02:18:16;97594.88;;;17.48;nan
39593;BME280;25286;48.870;9.084;2022-09-03T02:20:43;97593.72;;;17.31;nan
39593;BME280;25286;48.870;9.084;2022-09-03T02:23:12;97594.03;;;17.29;nan
39593;BME280;25286;48.870;9.084;2022-09-03T02:25:40;97602.59;;;17.51;nan
39593;BME280;25286;48.870;9.084;2022-09-03T02:28:08;97594.53;;;17.55;nan
39593;BME280;25286;48.870;9.084;2022-09-03T02:30:34;97604.31;;;17.47;nan
39593;BME280;25286;48.870;9.084;2022-09-03T02:33:00;97600.97;;;17.50;nan
39593;BME280;25286;48.870;9.084;2022-09-03T02:35:27;97599.00;;;17.51;nan
39593;BME280;25286;48.870;9.084;2022-09-03T02:37:53;97599.84;;;17.51;nan
39593;BME280;25286;48.870;9.084;2022-09-03T02:40:18;97602.13;;;17.63;nan
39593;BME280;25286;48.870;9.084;2022-09-03T02:42:44;97594.78;;;17.53;nan
39593;BME280;25286;48.870;9.084;2022-09-03T02:45:27;97591.59;;;17.46;nan
39593;BME280;25286;48.870;9.084;2022-09-03T02:48:00;97597.97;;;17.47;nan
39593;BME280;25286;48.870;9.084;2022-09-03T02:50:26;97592.03;;;17.35;nan
39593;BME280;25286;48.870;9.084;2022-09-03T02:52:51;97591.94;;;17.21;nan
39593;BME280;25286;48.870;9.084;2022-09-03T02:55:18;97583.50;;;17.07;nan
39593;BME280;25286;48.870;9.084;2022-09-03T02:57:44;97577.47;;;17.05;nan
39593;BME280;25286;48.870;9.084;2022-09-03T03:00:11;97585.25;;;17.22;nan
39593;BME280;25286;48.870;9.084;2022-09-03T03:02:37;97579.72;;;17.22;nan
39593;BME280;25286;48.870;9.084;2022-09-03T03:05:04;97587.38;;;17.30;nan
39593;BME280;25286;48.870;9.084;2022-09-03T03:07:32;97586.16;;;17.36;nan
39593;BME280;25286;48.870;9.084;2022-09-03T03:09:59;97583.69;;;17.53;nan
39593;BME280;25286;48.870;9.084;2022-09-03T03:12:26;97585.88;;;17.57;nan
39593;BME280;25286;48.870;9.084;2022-09-03T03:14:51;97580.63;;;17.36;nan
39593;BME280;25286;48.870;9.084;2022-09-03T03:17:17;97593.19;;;17.10;nan
39593;BME280;25286;48.870;9.084;2022-09-03T03:19:43;97581.72;;;17.16;nan
39593;BME280;25286;48.870;9.084;2022-09-03T03:22:08;97590.06;;;17.35;nan
39593;BME280;25286;48.870;9.084;2022-09-03T03:24:34;97601.00;;;17.45;nan
39593;BME280;25286;48.870;9.084;2022-09-03T03:27:01;97595.53;;;17.59;nan
39593;BME280;25286;48.870;9.084;2022-09-03T03:29:31;97596.41;;;17.60;nan
39593;BME280;25286;48.870;9.084;2022-09-03T03:31:57;97602.00;;;17.54;nan
39593;BME280;25286;48.870;9.084;2022-09-03T03:34:23;97595.75;;;17.25;nan
39593;BME280;25286;48.870;9.084;2022-09-03T03:36:48;97596.72;;;17.15;nan
39593;BME280;25286;48.870;9.084;2022-09-03T03:39:14;97596.47;;;17.12;nan
39593;BME280;25286;48.870;9.084;2022-09-03T03:41:39;97599.72;;;17.19;nan
39593;BME280;25286;48.870;9.084;2022-09-03T03:44:06;97595.53;;;17.21;nan
39593;BME280;25286;48.870;9.084;2022-09-03T03:46:37;97596.56;;;17.25;nan
39593;BME280;25286;48.870;9.084;2022-09-03T03:49:03;97598.69;;;17.34;nan
39593;BME280;25286;48.870;9.084;2022-09-03T03:51:31;97592.31;;;17.33;nan
39593;BME280;25286;48.870;9.084;2022-09-03T03:53:57;97601.81;;;17.27;nan
39593;BME280;25286;48.870;9.084;2022-09-03T03:56:24;97602.50;;;17.19;nan
39593;BME280;25286;48.870;9.084;2022-09-03T03:58:52;97596.28;;;17.27;nan
39593;BME280;25286;48.870;9.084;2022-09-03T04:01:20;97601.81;;;17.27;nan
39593;BME280;25286;48.870;9.084;2022-09-03T04:03:46;97597.06;;;17.33;nan
39593;BME280;25286;48.870;9.084;2022-09-03T04:06:15;97607.44;;;17.22;nan
39593;BME280;25286;48.870;9.084;2022-09-03T04:08:42;97591.94;;;17.21;nan
39593;BME280;25286;48.870;9.084;2022-09-03T04:11:10;97600.31;;;17.16;nan
39593;BME280;25286;48.870;9.084;2022-09-03T04:13:38;97593.72;;;17.12;nan
39593;BME280;25286;48.870;9.084;2022-09-03T04:16:06;97590.06;;;17.35;nan
39593;BME280;25286;48.870;9.084;2022-09-03T04:18:33;97592.69;;;17.45;nan
39593;BME280;25286;48.870;9.084;2022-09-03T04:21:09;97590.63;;;17.56;nan
39593;BME280;25286;48.870;9.084;2022-09-03T04:23:40;97595.25;;;17.61;nan
39593;BME280;25286;48.870;9.084;2022-09-03T04:26:08;97594.94;;;17.62;nan
39593;BME280;25286;48.870;9.084;2022-09-03T04:28:34;97602.88;;;17.50;nan
39593;BME280;25286;48.870;9.084;2022-09-03T04:31:04;97589.47;;;17.38;nan
39593;BME280;25286;48.870;9.084;2022-09-03T04:33:31;97597.50;;;17.40;nan
39593;BME280;25286;48.870;9.084;2022-09-03T04:36:04;97596.31;;;17.46;nan
39593;BME280;25286;48.870;9.084;2022-09-03T04:38:31;97596.91;;;17.43;nan
39593;BME280;25286;48.870;9.084;2022-09-03T04:40:57;97598.16;;;17.32;nan
39593;BME280;25286;48.870;9.084;2022-09-03T04:43:24;97602.75;;;17.41;nan
39593;BME280;25286;48.870;9.084;2022-09-03T04:45:50;97600.50;;;17.43;nan
39593;BME280;25286;48.870;9.084;2022-09-03T04:48:15;97601.31;;;17.44;nan
39593;BME280;25286;48.870;9.084;2022-09-03T04:50:41;97605.00;;;17.39;nan
39593;BME280;25286;48.870;9.084;2022-09-03T04:53:07;97602.13;;;17.44;nan
39593;BME280;25286;48.870;9.084;2022-09-03T04:55:36;97608.97;;;17.52;nan
39593;BME280;25286;48.870;9.084;2022-09-03T04:58:03;97608.91;;;17.57;nan
39593;BME280;25286;48.870;9.084;2022-09-03T05:00:29;97603.94;;;17.54;nan
39593;BME280;25286;48.870;9.084;2022-09-03T05:02:55;97594.56;;;17.31;nan
39593;BME280;25286;48.870;9.084;2022-09-03T05:05:24;97599.59;;;17.48;nan
39593;BME280;25286;48.870;9.084;2022-09-03T05:07:50;97607.19;;;17.61;nan
39593;BME280;25286;48.870;9.084;2022-09-03T05:10:15;97594.72;;;17.59;nan
39593;BME280;25286;48.870;9.084;2022-09-03T05:12:57;97600.56;;;17.38;nan
39593;BME280;25286;48.870;9.084;2022-09-03T05:15:22;97596.75;;;17.34;nan
39593;BME280;25286;48.870;9.084;2022-09-03T05:17:48;97603.28;;;17.43;nan
39593;BME280;25286;48.870;9.084;2022-09-03T05:20:17;97602.94;;;17.26;nan
39593;BME280;25286;48.870;9.084;2022-09-03T05:22:42;97607.50;;;17.17;nan
39593;BME280;25286;48.870;9.084;2022-09-03T05:25:08;97611.91;;;17.42;nan
39593;BME280;25286;48.870;9.084;2022-09-03T05:27:34;97608.34;;;17.36;nan
39593;BME280;25286;48.870;9.084;2022-09-03T05:29:59;97609.56;;;17.30;nan
39593;BME280;25286;48.870;9.084;2022-09-03T05:32:25;97615.47;;;17.23;nan
39593;BME280;25286;48.870;9.084;2022-09-03T05:34:55;97625.00;;;17.36;nan
39593;BME280;25286;48.870;9.084;2022-09-03T05:37:21;97611.66;;;17.38;nan
39593;BME280;25286;48.870;9.084;2022-09-03T05:39:47;97614.84;;;17.26;nan
39593;BME280;25286;48.870;9.084;2022-09-03T05:42:13;97618.44;;;17.27;nan
39593;BME280;25286;48.870;9.084;2022-09-03T05:44:39;97610.22;;;17.22;nan
39593;BME280;25286;48.870;9.084;2022-09-03T05:47:05;97613.06;;;17.36;nan
39593;BME280;25286;48.870;9.084;2022-09-03T05:49:31;97616.63;;;17.60;nan
39593;BME280;25286;48.870;9.084;2022-09-03T05:51:57;97615.28;;;17.76;nan
39593;BME280;25286;48.870;9.084;2022-09-03T05:54:23;97617.47;;;17.80;nan
39593;BME280;25286;48.870;9.084;2022-09-03T05:56:48;97617.97;;;17.63;nan
39593;BME280;25286;48.870;9.084;2022-09-03T05:59:14;97611.50;;;17.67;nan
39593;BME280;25286;48.870;9.084;2022-09-03T06:01:41;97629.69;;;17.60;nan
39593;BME280;25286;48.870;9.084;2022-09-03T06:04:12;97632.38;;;17.65;nan
39593;BME280;25286;48.870;9.084;2022-09-03T06:06:42;97634.63;;;17.82;nan
39593;BME280;25286;48.870;9.084;2022-09-03T06:09:11;97636.72;;;17.71;nan
39593;BME280;25286;48.870;9.084;2022-09-03T06:11:39;97639.81;;;17.69;nan
39593;BME280;25286;48.870;9.084;2022-09-03T06:14:06;97635.47;;;17.82;nan
39593;BME280;25286;48.870;9.084;2022-09-03T06:16:35;97629.69;;;17.97;nan
39593;BME280;25286;48.870;9.084;2022-09-03T06:19:03;97631.78;;;18.06;nan
39593;BME280;25286;48.870;9.084;2022-09-03T06:21:31;97632.00;;;18.09;nan
39593;BME280;25286;48.870;9.084;2022-09-03T06:23:57;97632.94;;;18.18;nan
39593;BME280;25286;48.870;9.084;2022-09-03T06:26:24;97635.72;;;18.18;nan
39593;BME280;25286;48.870;9.084;2022-09-03T06:28:50;97638.88;;;18.31;nan
39593;BME280;25286;48.870;9.084;2022-09-03T06:31:21;97636.69;;;18.27;nan
39593;BME280;25286;48.870;9.084;2022-09-03T06:33:47;97636.13;;;18.12;nan
39593;BME280;25286;48.870;9.084;2022-09-03T06:36:16;97636.44;;;18.10;nan
39593;BME280;25286;48.870;9.084;2022-09-03T06:38:42;97631.84;;;18.19;nan
39593;BME280;25286;48.870;9.084;2022-09-03T06:41:12;97632.50;;;18.30;nan
39593;BME280;25286;48.870;9.084;2022-09-03T06:43:40;97636.13;;;18.44;nan
39593;BME280;25286;48.870;9.084;2022-09-03T06:46:13;97638.31;;;18.47;nan
39593;BME280;25286;48.870;9.084;2022-09-03T06:48:40;97648.28;;;18.48;nan
39593;BME280;25286;48.870;9.084;2022-09-03T06:53:37;97640.38;;;18.56;nan
39593;BME280;25286;48.870;9.084;2022-09-03T06:56:08;97644.50;;;18.58;nan
39593;BME280;25286;48.870;9.084;2022-09-03T06:58:39;97639.63;;;18.50;nan
39593;BME280;25286;48.870;9.084;2022-09-03T07:01:21;97643.00;;;18.33;nan
39593;BME280;25286;48.870;9.084;2022-09-03T07:03:52;97633.56;;;18.48;nan
39593;BME280;25286;48.870;9.084;2022-09-03T07:06:20;97639.84;;;18.53;nan
39593;BME280;25286;48.870;9.084;2022-09-03T07:08:46;97647.31;;;18.72;nan
39593;BME280;25286;48.870;9.084;2022-09-03T07:11:14;97646.81;;;18.70;nan
39593;BME280;25286;48.870;9.084;2022-09-03T07:13:43;97644.19;;;18.60;nan
39593;BME280;25286;48.870;9.084;2022-09-03T07:16:12;97641.38;;;18.78;nan
39593;BME280;25286;48.870;9.084;2022-09-03T07:18:38;97636.94;;;18.91;nan
39593;BME280;25286;48.870;9.084;2022-09-03T07:21:09;97644.19;;;18.92;nan
39593;BME280;25286;48.870;9.084;2022-09-03T07:23:36;97639.94;;;18.95;nan
39593;BME280;25286;48.870;9.084;2022-09-03T07:26:05;97654.16;;;18.93;nan
39593;BME280;25286;48.870;9.084;2022-09-03T07:28:31;97648.06;;;19.05;nan
39593;BME280;25286;48.870;9.084;2022-09-03T07:31:03;97647.91;;;19.01;nan
39593;BME280;25286;48.870;9.084;2022-09-03T07:33:29;97654.44;;;18.92;nan
39593;BME280;25286;48.870;9.084;2022-09-03T07:35:55;97650.72;;;18.83;nan
39593;BME280;25286;48.870;9.084;2022-09-03T07:38:26;97657.16;;;18.83;nan
39593;BME280;25286;48.870;9.084;2022-09-03T07:40:57;97654.88;;;18.85;nan
39593;BME280;25286;48.870;9.084;2022-09-03T07:43:26;97662.50;;;18.93;nan
39593;BME280;25286;48.870;9.084;2022-09-03T07:45:53;97653.78;;;18.67;nan
39593;BME280;25286;48.870;9.084;2022-09-03T07:48:20;97656.72;;;18.76;nan
39593;BME280;25286;48.870;9.084;2022-09-03T07:50:46;97656.09;;;18.79;nan
39593;BME280;25286;48.870;9.084;2022-09-03T07:53:12;97667.25;;;18.60;nan
39593;BME280;25286;48.870;9.084;2022-09-03T07:55:38;97662.28;;;18.90;nan
39593;BME280;25286;48.870;9.084;2022-09-03T07:58:04;97671.25;;;19.14;nan
39593;BME280;25286;48.870;9.084;2022-09-03T08:00:30;97669.41;;;19.37;nan
39593;BME280;25286;48.870;9.084;2022-09-03T08:02:58;97658.59;;;19.36;nan
39593;BME280;25286;48.870;9.084;2022-09-03T08:05:34;97668.47;;;19.28;nan
39593;BME280;25286;48.870;9.084;2022-09-03T08:08:02;97668.56;;;19.50;nan
39593;BME280;25286;48.870;9.084;2022-09-03T08:10:28;97673.22;;;19.27;nan
39593;BME280;25286;48.870;9.084;2022-09-03T08:12:56;97673.63;;;19.07;nan
39593;BME280;25286;48.870;9.084;2022-09-03T08:15:24;97675.72;;;19.29;nan
39593;BME280;25286;48.870;9.084;2022-09-03T08:17:49;97679.72;;;19.37;nan
39593;BME280;25286;48.870;9.084;2022-09-03T08:20:15;97688.88;;;19.10;nan
39593;BME280;25286;48.870;9.084;2022-09-03T08:22:41;97695.66;;;19.03;nan
39593;BME280;25286;48.870;9.084;2022-09-03T08:25:07;97693.81;;;18.99;nan
39593;BME280;25286;48.870;9.084;2022-09-03T08:27:32;97689.47;;;18.79;nan
39593;BME280;25286;48.870;9.084;2022-09-03T08:29:59;97690.88;;;18.76;nan
39593;BME280;25286;48.870;9.084;2022-09-03T08:32:25;97689.47;;;18.79;nan
39593;BME280;25286;48.870;9.084;2022-09-03T08:34:50;97688.53;;;18.51;nan
39593;BME280;25286;48.870;9.084;2022-09-03T08:37:17;97684.06;;;18.69;nan
39593;BME280;25286;48.870;9.084;2022-09-03T08:39:43;97689.34;;;18.70;nan
39593;BME280;25286;48.870;9.084;2022-09-03T08:43:06;97697.66;;;18.70;nan
39593;BME280;25286;48.870;9.084;2022-09-03T08:45:21;97695.16;;;18.88;nan
39593;BME280;25286;48.870;9.084;2022-09-03T08:47:50;97702.75;;;18.96;nan
39593;BME280;25286;48.870;9.084;2022-09-03T08:50:30;97713.50;;;19.02;nan
39593;BME280;25286;48.870;9.084;2022-09-03T08:53:20;97711.72;;;18.93;nan
39593;BME280;25286;48.870;9.084;2022-09-03T08:58:17;97714.81;;;19.05;nan
39593;BME280;25286;48.870;9.084;2022-09-03T09:00:56;97712.66;;;18.88;nan
39593;BME280;25286;48.870;9.084;2022-09-03T09:23:31;97727.44;;;19.30;nan
39593;BME280;25286;48.870;9.084;2022-09-03T09:25:59;97721.44;;;19.78;nan
39593;BME280;25286;48.870;9.084;2022-09-03T09:28:33;97729.41;;;19.85;nan
39593;BME280;25286;48.870;9.084;2022-09-03T09:31:01;97731.72;;;20.05;nan
39593;BME280;25286;48.870;9.084;2022-09-03T09:33:29;97730.31;;;19.80;nan
39593;BME280;25286;48.870;9.084;2022-09-03T09:35:55;97732.28;;;19.38;nan
39593;BME280;25286;48.870;9.084;2022-09-03T09:38:31;97728.47;;;19.48;nan
39593;BME280;25286;48.870;9.084;2022-09-03T09:41:17;97723.31;;;19.69;nan
39593;BME280;25286;48.870;9.084;2022-09-03T09:43:44;97711.34;;;19.54;nan
39593;BME280;25286;48.870;9.084;2022-09-03T09:46:20;97711.41;;;20.04;nan
39593;BME280;25286;48.870;9.084;2022-09-03T09:48:50;97715.31;;;20.03;nan
39593;BME280;25286;48.870;9.084;2022-09-03T09:51:28;97711.09;;;19.92;nan
39593;BME280;25286;48.870;9.084;2022-09-03T09:56:32;97709.47;;;19.91;nan
39593;BME280;25286;48.870;9.084;2022-09-03T09:59:05;97706.69;;;19.91;nan
39593;BME280;25286;48.870;9.084;2022-09-03T10:01:32;97712.38;;;19.72;nan
39593;BME280;25286;48.870;9.084;2022-09-03T10:04:00;97714.53;;;19.89;nan
39593;BME280;25286;48.870;9.084;2022-09-03T10:06:32;97718.34;;;19.93;nan
39593;BME280;25286;48.870;9.084;2022-09-03T10:09:19;97718.03;;;19.95;nan
39593;BME280;25286;48.870;9.084;2022-09-03T10:11:48;97709.28;;;19.74;nan
39593;BME280;25286;48.870;9.084;2022-09-03T10:14:30;97708.56;;;20.18;nan
39593;BME280;25286;48.870;9.084;2022-09-03T10:19:42;97707.69;;;20.31;nan
39593;BME280;25286;48.870;9.084;2022-09-03T10:22:30;97698.66;;;20.26;nan
39593;BME280;25286;48.870;9.084;2022-09-03T10:25:06;97687.47;;;20.03;nan
39593;BME280;25286;48.870;9.084;2022-09-03T10:27:32;97692.41;;;20.65;nan
39593;BME280;25286;48.870;9.084;2022-09-03T10:30:00;97691.69;;;20.82;nan
39593;BME280;25286;48.870;9.084;2022-09-03T10:38:33;97688.88;;;21.04;nan
39593;BME280;25286;48.870;9.084;2022-09-03T10:41:12;97690.41;;;21.19;nan
39593;BME280;25286;48.870;9.084;2022-09-03T10:43:49;97695.34;;;21.22;nan
39593;BME280;25286;48.870;9.084;2022-09-03T10:46:25;97690.84;;;21.04;nan
39593;BME280;25286;48.870;9.084;2022-09-03T10:51:49;97682.31;;;21.40;nan
39593;BME280;25286;48.870;9.084;2022-09-03T10:57:30;97680.19;;;21.46;nan
39593;BME280;25286;48.870;9.084;2022-09-03T11:00:10;97682.63;;;21.39;nan
39593;BME280;25286;48.870;9.084;2022-09-03T11:03:04;97679.13;;;21.73;nan
39593;BME280;25286;48.870;9.084;2022-09-03T11:08:22;97670.47;;;22.09;nan
39593;BME280;25286;48.870;9.084;2022-09-03T11:11:05;97669.16;;;22.15;nan
39593;BME280;25286;48.870;9.084;2022-09-03T11:13:40;97663.75;;;22.19;nan
39593;BME280;25286;48.870;9.084;2022-09-03T11:16:17;97653.41;;;22.19;nan
39593;BME280;25286;48.870;9.084;2022-09-03T11:18:50;97654.03;;;22.16;nan
39593;BME280;25286;48.870;9.084;2022-09-03T11:21:20;97654.50;;;22.10;nan
39593;BME280;25286;48.870;9.084;2022-09-03T11:23:50;97656.50;;;22.09;nan
39593;BME280;25286;48.870;9.084;2022-09-03T11:26:18;97662.75;;;22.15;nan
39593;BME280;25286;48.870;9.084;2022-09-03T11:28:59;97657.19;;;22.23;nan
39593;BME280;25286;48.870;9.084;2022-09-03T11:34:29;97645.78;;;22.02;nan
39593;BME280;25286;48.870;9.084;2022-09-03T11:37:20;97646.47;;;22.34;nan
39593;BME280;25286;48.870;9.084;2022-09-03T11:40:06;97654.03;;;22.25;nan
39593;BME280;25286;48.870;9.084;2022-09-03T11:42:40;97661.28;;;22.26;nan
39593;BME280;25286;48.870;9.084;2022-09-03T11:47:51;97643.84;;;22.38;nan
39593;BME280;25286;48.870;9.084;2022-09-03T11:52:47;97635.47;;;22.38;nan
39593;BME280;25286;48.870;9.084;2022-09-03T11:55:28;97645.66;;;22.16;nan
39593;BME280;25286;48.870;9.084;2022-09-03T11:57:55;97650.78;;;22.23;nan
39593;BME280;25286;48.870;9.084;2022-09-03T12:00:21;97652.25;;;22.20;nan
39593;BME280;25286;48.870;9.084;2022-09-03T12:02:51;97651.25;;;22.25;nan
39593;BME280;25286;48.870;9.084;2022-09-03T12:05:42;97655.53;;;22.14;nan
39593;BME280;25286;48.870;9.084;2022-09-03T12:11:05;97687.84;;;21.89;nan
39593;BME280;25286;48.870;9.084;2022-09-03T12:19:06;97663.69;;;21.84;nan
39593;BME280;25286;48.870;9.084;2022-09-03T12:21:37;97667.97;;;21.81;nan
39593;BME280;25286;48.870;9.084;2022-09-03T12:24:04;97676.97;;;21.70;nan
39593;BME280;25286;48.870;9.084;2022-09-03T12:26:38;97682.88;;;21.60;nan
39593;BME280;25286;48.870;9.084;2022-09-03T12:29:04;97691.41;;;21.54;nan
39593;BME280;25286;48.870;9.084;2022-09-03T12:31:32;97690.41;;;21.50;nan
39593;BME280;25286;48.870;9.084;2022-09-03T12:34:14;97695.47;;;21.48;nan
39593;BME280;25286;48.870;9.084;2022-09-03T12:36:42;97704.50;;;21.45;nan
39593;BME280;25286;48.870;9.084;2022-09-03T12:39:09;97703.31;;;21.38;nan
39593;BME280;25286;48.870;9.084;2022-09-03T12:41:36;97714.22;;;21.17;nan
39593;BME280;25286;48.870;9.084;2022-09-03T12:44:02;97718.31;;;20.66;nan
39593;BME280;25286;48.870;9.084;2022-09-03T12:46:30;97721.44;;;19.78;nan
39593;BME280;25286;48.870;9.084;2022-09-03T12:49:01;97731.53;;;19.46;nan
39593;BME280;25286;48.870;9.084;2022-09-03T12:51:39;97735.25;;;19.28;nan
39593;BME280;25286;48.870;9.084;2022-09-03T12:54:06;97734.63;;;19.17;nan
39593;BME280;25286;48.870;9.084;2022-09-03T12:56:34;97738.50;;;18.89;nan
39593;BME280;25286;48.870;9.084;2022-09-03T12:59:12;97734.03;;;18.74;nan
39593;BME280;25286;48.870;9.084;2022-09-03T13:01:44;97730.31;;;18.60;nan
39593;BME280;25286;48.870;9.084;2022-09-03T13:04:21;97724.03;;;18.54;nan
39593;BME280;25286;48.870;9.084;2022-09-03T13:06:52;97734.47;;;18.62;nan
39593;BME280;25286;48.870;9.084;2022-09-03T13:09:24;97722.22;;;18.63;nan
39593;BME280;25286;48.870;9.084;2022-09-03T13:11:51;97728.91;;;18.62;nan
39593;BME280;25286;48.870;9.084;2022-09-03T13:14:20;97736.19;;;18.77;nan
39593;BME280;25286;48.870;9.084;2022-09-03T13:30:08;97725.34;;;19.49;nan
39593;BME280;25286;48.870;9.084;2022-09-03T13:32:42;97734.63;;;19.45;nan
39593;BME280;25286;48.870;9.084;2022-09-03T13:37:54;97715.06;;;19.36;nan
39593;BME280;25286;48.870;9.084;2022-09-03T13:40:26;97710.72;;;19.30;nan
39593;BME280;25286;48.870;9.084;2022-09-03T13:43:04;97707.63;;;19.32;nan
39593;BME280;25286;48.870;9.084;2022-09-03T13:45:44;97711.03;;;19.42;nan
39593;BME280;25286;48.870;9.084;2022-09-03T13:48:18;97697.03;;;19.47;nan
39593;BME280;25286;48.870;9.084;2022-09-03T13:51:10;97692.41;;;19.70;nan
39593;BME280;25286;48.870;9.084;2022-09-03T13:56:49;97688.88;;;20.37;nan
39593;BME280;25286;48.870;9.084;2022-09-03T14:19:13;97687.22;;;19.77;nan
39593;BME280;25286;48.870;9.084;2022-09-03T14:21:59;97685.91;;;19.75;nan
39593;BME280;25286;48.870;9.084;2022-09-03T14:24:58;97690.72;;;19.69;nan
39593;BME280;25286;48.870;9.084;2022-09-03T14:27:27;97689.91;;;19.69;nan
39593;BME280;25286;48.870;9.084;2022-09-03T14:32:53;97689.78;;;19.74;nan
39593;BME280;25286;48.870;9.084;2022-09-03T15:01:32;97728.50;;;19.62;nan
39593;BME280;25286;48.870;9.084;2022-09-03T15:07:17;97723.19;;;19.46;nan
39593;BME280;25286;48.870;9.084;2022-09-03T15:12:56;97716.94;;;21.39;nan
39593;BME280;25286;48.870;9.084;2022-09-03T15:24:18;97718.88;;;24.02;nan
39593;BME280;25286;48.870;9.084;2022-09-03T15:27:04;97710.38;;;24.74;nan
39593;BME280;25286;48.870;9.084;2022-09-03T15:38:33;97714.50;;;24.34;nan
39593;BME280;25286;48.870;9.084;2022-09-03T15:41:27;97720.19;;;23.75;nan
39593;BME280;25286;48.870;9.084;2022-09-03T15:43:57;97716.25;;;23.68;nan
39593;BME280;25286;48.870;9.084;2022-09-03T15:49:42;97724.34;;;23.61;nan
39593;BME280;25286;48.870;9.084;2022-09-03T15:52:31;97724.53;;;23.55;nan
39593;BME280;25286;48.870;9.084;2022-09-03T15:55:32;97730.16;;;22.74;nan
39593;BME280;25286;48.870;9.084;2022-09-03T16:01:03;97724.50;;;21.39;nan
39593;BME280;25286;48.870;9.084;2022-09-03T16:06:54;97729.06;;;21.03;nan
39593;BME280;25286;48.870;9.084;2022-09-03T16:09:44;97725.56;;;20.67;nan
39593;BME280;25286;48.870;9.084;2022-09-03T16:15:25;97730.19;;;20.35;nan
39593;BME280;25286;48.870;9.084;2022-09-03T16:20:47;97725.94;;;20.01;nan
39593;BME280;25286;48.870;9.084;2022-09-03T16:23:22;97723.81;;;19.98;nan
39593;BME280;25286;48.870;9.084;2022-09-03T16:25:57;97727.50;;;20.08;nan
39593;BME280;25286;48.870;9.084;2022-09-03T16:28:54;97722.06;;;20.25;nan
39593;BME280;25286;48.870;9.084;2022-09-03T16:39:29;97713.66;;;20.84;nan
39593;BME280;25286;48.870;9.084;2022-09-03T16:45:10;97718.38;;;20.52;nan
39593;BME280;25286;48.870;9.084;2022-09-03T16:53:14;97734.81;;;20.40;nan
39593;BME280;25286;48.870;9.084;2022-09-03T16:59:01;97729.25;;;20.40;nan
39593;BME280;25286;48.870;9.084;2022-09-03T17:04:02;97729.19;;;20.31;nan
39593;BME280;25286;48.870;9.084;2022-09-03T17:06:48;97732.31;;;20.52;nan
39593;BME280;25286;48.870;9.084;2022-09-03T17:11:58;97724.69;;;20.44;nan
39593;BME280;25286;48.870;9.084;2022-09-03T17:22:54;97729.06;;;20.36;nan
39593;BME280;25286;48.870;9.084;2022-09-03T17:25:38;97725.38;;;20.27;nan
39593;BME280;25286;48.870;9.084;2022-09-03T17:36:36;97733.75;;;20.13;nan
39593;BME280;25286;48.870;9.084;2022-09-03T17:39:23;97744.00;;;20.04;nan
39593;BME280;25286;48.870;9.084;2022-09-03T17:49:41;97754.63;;;19.88;nan
39593;BME280;25286;48.870;9.084;2022-09-03T17:52:27;97759.19;;;19.84;nan
39593;BME280;25286;48.870;9.084;2022-09-03T17:54:57;97765.59;;;19.71;nan
39593;BME280;25286;48.870;9.084;2022-09-03T17:57:56;97761.66;;;19.72;nan
39593;BME280;25286;48.870;9.084;2022-09-03T18:03:55;97785.75;;;19.49;nan
39593;BME280;25286;48.870;9.084;2022-09-03T18:14:29;97796.47;;;19.42;nan
39593;BME280;25286;48.870;9.084;2022-09-03T18:19:35;97798.84;;;19.35;nan
39593;BME280;25286;48.870;9.084;2022-09-03T18:22:23;97794.00;;;19.40;nan
39593;BME280;25286;48.870;9.084;2022-09-03T18:25:08;97797.91;;;19.39;nan
39593;BME280;25286;48.870;9.084;2022-09-03T18:27:57;97800.97;;;19.24;nan
39593;BME280;25286;48.870;9.084;2022-09-03T18:30:44;97799.31;;;19.23;nan
39593;BME280;25286;48.870;9.084;2022-09-03T18:33:28;97802.19;;;19.18;nan
39593;BME280;25286;48.870;9.084;2022-09-03T18:36:12;97801.78;;;19.11;nan
39593;BME280;25286;48.870;9.084;2022-09-03T18:39:02;97808.34;;;19.15;nan
39593;BME280;25286;48.870;9.084;2022-09-03T18:41:58;97813.19;;;19.09;nan
39593;BME280;25286;48.870;9.084;2022-09-03T18:56:48;97822.41;;;18.91;nan
39593;BME280;25286;48.870;9.084;2022-09-03T19:00:06;97819.19;;;18.84;nan